createdAt,value
2019-05-16T00:02:18.405Z,15.48
2019-05-16T00:04:44.815Z,15.40
2019-05-16T00:07:13.492Z,15.45
2019-05-16T00:09:40.072Z,15.48
2019-05-16T00:12:08.682Z,15.47
2019-05-16T00:14:38.594Z,15.37
2019-05-16T00:17:05.338Z,15.42
2019-05-16T00:19:31.948Z,15.45
2019-05-16T00:22:01.327Z,15.57
2019-05-16T00:24:29.154Z,15.59
2019-05-16T00:26:57.919Z,15.68
2019-05-16T00:29:27.710Z,15.79
2019-05-16T00:31:54.429Z,15.75
2019-05-16T00:34:21.006Z,15.72
2019-05-16T00:36:49.637Z,15.71
2019-05-16T00:39:18.406Z,15.58
2019-05-16T00:41:44.563Z,15.51
2019-05-16T00:44:12.590Z,15.43
2019-05-16T00:46:39.207Z,15.58
2019-05-16T00:49:08.119Z,15.51
2019-05-16T00:51:37.688Z,15.57
2019-05-16T00:54:04.677Z,15.48
2019-05-16T00:56:31.267Z,15.55
2019-05-16T00:59:00.815Z,15.59
2019-05-16T01:01:28.292Z,15.42
2019-05-16T01:03:55.123Z,15.38
2019-05-16T01:06:23.655Z,15.24
2019-05-16T01:08:50.310Z,15.35
2019-05-16T01:11:18.454Z,15.41
2019-05-16T01:13:48.781Z,15.44
2019-05-16T01:16:15.466Z,15.36
2019-05-16T01:18:42.053Z,15.37
2019-05-16T01:21:12.236Z,15.45
2019-05-16T01:23:38.984Z,15.39
2019-05-16T01:26:07.814Z,15.37
2019-05-16T01:28:37.635Z,15.20
2019-05-16T01:31:03.936Z,15.21
2019-05-16T01:33:30.527Z,15.16
2019-05-16T01:35:59.645Z,15.29
2019-05-16T01:38:28.337Z,15.25
2019-05-16T01:40:54.531Z,15.44
2019-05-16T01:43:28.408Z,15.51
2019-05-16T01:45:55.114Z,15.51
2019-05-16T01:48:21.676Z,15.35
2019-05-16T01:50:52.374Z,15.25
2019-05-16T01:53:19.209Z,15.09
2019-05-16T01:55:45.922Z,15.00
2019-05-16T01:58:15.522Z,15.00
2019-05-16T02:00:52.584Z,15.02
2019-05-16T02:03:10.507Z,15.14
2019-05-16T02:05:40.346Z,15.20
2019-05-16T02:08:08.894Z,15.12
2019-05-16T02:10:37.728Z,15.24
2019-05-16T02:13:05.876Z,15.24
2019-05-16T02:15:32.756Z,15.31
2019-05-16T02:17:59.632Z,15.41
2019-05-16T02:20:29.174Z,15.42
2019-05-16T02:22:55.760Z,15.52
2019-05-16T02:25:22.473Z,15.43
2019-05-16T02:27:50.999Z,15.22
2019-05-16T02:30:21.336Z,15.20
2019-05-16T02:32:45.903Z,15.18
2019-05-16T02:35:14.919Z,15.15
2019-05-16T02:37:42.477Z,15.13
2019-05-16T02:40:12.056Z,15.01
2019-05-16T02:42:41.960Z,15.04
2019-05-16T02:45:10.643Z,15.15
2019-05-16T02:47:37.557Z,15.02
2019-05-16T02:50:06.359Z,15.07
2019-05-16T02:52:32.928Z,15.17
2019-05-16T02:55:00.920Z,15.13
2019-05-16T02:57:31.564Z,15.15
2019-05-16T03:00:01.770Z,15.31
2019-05-16T03:02:27.052Z,15.03
2019-05-16T03:04:56.168Z,15.09
2019-05-16T03:07:36.485Z,15.11
2019-05-16T03:09:51.485Z,15.12
2019-05-16T03:12:21.190Z,14.97
2019-05-16T03:14:50.361Z,14.80
2019-05-16T03:17:16.172Z,14.97
2019-05-16T03:19:44.893Z,15.09
2019-05-16T03:22:11.838Z,15.35
2019-05-16T03:24:41.753Z,15.27
2019-05-16T03:27:10.978Z,15.22
2019-05-16T03:29:37.647Z,15.12
2019-05-16T03:32:04.523Z,15.23
2019-05-16T03:34:34.729Z,14.83
2019-05-16T03:37:03.998Z,14.80
2019-05-16T03:39:31.423Z,14.90
2019-05-16T03:42:01.075Z,14.91
2019-05-16T03:44:31.462Z,14.81
2019-05-16T03:46:56.143Z,14.99
2019-05-16T03:49:25.096Z,15.19
2019-05-16T03:51:51.735Z,15.30
2019-05-16T03:54:21.102Z,15.40
2019-05-16T03:56:51.398Z,15.51
2019-05-16T03:59:17.208Z,15.61
2019-05-16T04:01:43.788Z,15.40
2019-05-16T04:04:13.890Z,15.48
2019-05-16T04:06:41.598Z,15.59
2019-05-16T04:09:11.879Z,15.47
2019-05-16T04:11:42.121Z,15.40
2019-05-16T04:14:10.626Z,15.47
2019-05-16T04:16:37.334Z,15.54
2019-05-16T04:19:06.191Z,15.74
2019-05-16T04:21:33.076Z,15.74
2019-05-16T04:24:01.207Z,14.85
2019-05-16T04:26:31.433Z,14.77
2019-05-16T04:29:00.767Z,14.66
2019-05-16T04:31:30.540Z,14.76
2019-05-16T04:33:57.412Z,15.04
2019-05-16T04:36:24.000Z,15.28
2019-05-16T04:38:51.346Z,15.07
2019-05-16T04:41:21.148Z,15.14
2019-05-16T04:43:50.585Z,15.33
2019-05-16T04:48:50.811Z,15.06
2019-05-16T04:51:17.196Z,15.27
2019-05-16T04:53:43.788Z,15.49
2019-05-16T04:56:12.184Z,15.73
2019-05-16T04:58:40.859Z,15.89
2019-05-16T05:01:07.364Z,16.17
2019-05-16T05:03:36.502Z,16.19
2019-05-16T05:06:03.369Z,16.29
2019-05-16T05:08:57.065Z,16.34
2019-05-16T05:11:21.242Z,16.56
2019-05-16T05:13:46.376Z,16.59
2019-05-16T05:16:13.125Z,16.65
2019-05-16T05:18:42.177Z,16.39
2019-05-16T05:21:11.417Z,16.37
2019-05-16T05:23:37.672Z,16.57
2019-05-16T05:26:06.264Z,16.74
2019-05-16T05:28:32.856Z,16.90
2019-05-16T05:30:59.870Z,17.00
2019-05-16T05:33:30.456Z,17.18
2019-05-16T05:35:57.101Z,17.16
2019-05-16T05:38:23.976Z,17.21
2019-05-16T05:40:53.277Z,17.30
2019-05-16T05:43:21.476Z,17.41
2019-05-16T05:45:50.917Z,17.46
2019-05-16T05:48:21.483Z,17.50
2019-05-16T05:50:47.435Z,17.32
2019-05-16T05:53:14.191Z,17.46
2019-05-16T05:55:42.934Z,17.33
2019-05-16T05:58:10.153Z,17.19
2019-05-16T06:00:36.711Z,17.17
2019-05-16T06:03:06.001Z,17.25
2019-05-16T06:05:32.859Z,17.32
2019-05-16T06:08:00.278Z,18.25
2019-05-16T06:10:30.475Z,17.65
2019-05-16T06:12:57.354Z,17.45
2019-05-16T06:15:23.932Z,17.42
2019-05-16T06:18:00.061Z,17.45
2019-05-16T06:20:25.656Z,17.55
2019-05-16T06:22:52.260Z,17.71
2019-05-16T06:25:23.194Z,17.79
2019-05-16T06:27:51.191Z,17.58
2019-05-16T06:30:20.615Z,17.32
2019-05-16T06:32:50.182Z,17.32
2019-05-16T06:35:16.884Z,17.31
2019-05-16T06:37:43.481Z,17.34
2019-05-16T06:40:12.913Z,17.41
2019-05-16T06:42:40.248Z,17.50
2019-05-16T06:45:10.117Z,17.74
2019-05-16T06:47:41.309Z,17.91
2019-05-16T06:50:11.445Z,17.98
2019-05-16T06:52:36.319Z,18.05
2019-05-16T06:55:09.862Z,18.43
2019-05-16T06:57:36.367Z,18.59
2019-05-16T07:00:03.262Z,18.76
2019-05-16T07:02:36.068Z,18.94
2019-05-16T07:05:02.952Z,18.66
2019-05-16T07:07:30.762Z,18.61
2019-05-16T07:10:04.692Z,18.51
2019-05-16T07:12:33.784Z,18.62
2019-05-16T07:15:01.236Z,18.66
2019-05-16T07:17:31.526Z,18.66
2019-05-16T07:20:05.112Z,18.97
2019-05-16T07:22:31.200Z,19.20
2019-05-16T07:25:00.074Z,19.29
2019-05-16T07:27:26.744Z,19.16
2019-05-16T07:29:53.495Z,19.86
2019-05-16T07:32:22.487Z,20.04
2019-05-16T07:34:50.992Z,20.41
2019-05-16T07:37:19.884Z,19.93
2019-05-16T07:39:51.102Z,19.71
2019-05-16T07:42:16.998Z,19.66
2019-05-16T07:44:45.956Z,19.79
2019-05-16T07:47:20.298Z,19.96
2019-05-16T07:49:47.338Z,19.86
2019-05-16T07:52:20.623Z,20.04
2019-05-16T07:54:50.707Z,20.21
2019-05-16T07:57:37.249Z,20.49
2019-05-16T08:00:07.069Z,20.42
2019-05-16T08:02:40.229Z,20.34
2019-05-16T08:05:10.328Z,20.47
2019-05-16T08:07:40.753Z,20.21
2019-05-16T08:10:07.722Z,20.30
2019-05-16T08:12:40.599Z,20.47
2019-05-16T08:17:44.260Z,19.98
2019-05-16T08:20:10.795Z,19.74
2019-05-16T08:22:43.315Z,19.81
2019-05-16T08:25:15.692Z,19.98
2019-05-16T08:27:52.016Z,20.25
2019-05-16T08:30:21.056Z,20.30
2019-05-16T08:32:52.842Z,20.30
2019-05-16T08:35:21.092Z,19.71
2019-05-16T08:37:47.258Z,19.54
2019-05-16T08:40:21.303Z,19.96
2019-05-16T08:42:45.624Z,20.42
2019-05-16T08:45:13.154Z,20.54
2019-05-16T08:47:46.447Z,20.76
2019-05-16T08:50:21.740Z,21.27
2019-05-16T08:52:52.912Z,21.92
2019-05-16T08:55:21.916Z,21.75
2019-05-16T08:57:52.815Z,20.91
2019-05-16T09:00:21.777Z,21.39
2019-05-16T09:02:53.263Z,21.80
2019-05-16T09:05:22.673Z,21.78
2019-05-16T09:07:49.087Z,21.48
2019-05-16T09:10:49.809Z,21.50
2019-05-16T09:12:49.431Z,20.95
2019-05-16T09:15:17.063Z,21.21
2019-05-16T09:17:47.455Z,21.76
2019-05-16T09:20:17.408Z,21.50
2019-05-16T09:22:44.635Z,21.67
2019-05-16T09:25:13.451Z,21.40
2019-05-16T09:27:40.060Z,22.04
2019-05-16T09:30:07.936Z,22.86
2019-05-16T09:32:42.381Z,22.96
2019-05-16T09:35:08.169Z,22.49
2019-05-16T09:37:37.348Z,22.06
2019-05-16T09:40:06.487Z,21.59
2019-05-16T09:42:33.216Z,21.28
2019-05-16T09:45:02.161Z,21.18
2019-05-16T09:47:31.671Z,21.05
2019-05-16T09:49:59.330Z,20.90
2019-05-16T09:52:27.395Z,20.74
2019-05-16T09:57:32.538Z,21.21
2019-05-16T10:00:06.629Z,21.43
2019-05-16T10:05:26.624Z,21.14
2019-05-16T10:07:58.180Z,21.02
2019-05-16T10:10:26.277Z,21.29
2019-05-16T10:12:54.269Z,21.69
2019-05-16T10:15:26.963Z,22.22
2019-05-16T10:17:53.511Z,22.69
2019-05-16T10:20:20.415Z,23.32
2019-05-16T10:22:50.862Z,23.47
2019-05-16T10:25:19.535Z,23.11
2019-05-16T10:27:47.568Z,22.79
2019-05-16T10:30:17.560Z,22.48
2019-05-16T10:32:47.208Z,22.31
2019-05-16T10:35:13.251Z,22.46
2019-05-16T10:37:42.389Z,22.34
2019-05-16T10:40:09.117Z,22.31
2019-05-16T10:42:38.037Z,22.09
2019-05-16T10:45:08.710Z,22.14
2019-05-16T10:47:37.494Z,22.22
2019-05-16T10:50:08.459Z,21.43
2019-05-16T10:52:37.419Z,21.48
2019-05-16T10:55:04.178Z,21.25
2019-05-16T10:57:31.136Z,21.71
2019-05-16T11:00:08.858Z,22.10
2019-05-16T11:02:28.609Z,22.31
2019-05-16T11:05:02.837Z,22.28
2019-05-16T11:07:29.425Z,22.29
2019-05-16T11:10:01.376Z,21.88
2019-05-16T11:12:22.916Z,21.59
2019-05-16T11:14:54.543Z,21.91
2019-05-16T11:17:27.662Z,21.69
2019-05-16T11:19:55.550Z,21.76
2019-05-16T11:22:29.986Z,21.96
2019-05-16T11:24:59.870Z,22.09
2019-05-16T11:27:26.506Z,21.81
2019-05-16T11:29:56.624Z,21.70
2019-05-16T11:32:23.575Z,21.84
2019-05-16T11:34:50.306Z,21.76
2019-05-16T11:37:19.752Z,21.93
2019-05-16T11:39:46.641Z,21.73
2019-05-16T11:42:13.281Z,21.57
2019-05-16T11:44:42.204Z,21.78
2019-05-16T11:47:09.261Z,21.58
2019-05-16T11:49:36.918Z,21.59
2019-05-16T11:52:07.448Z,21.69
2019-05-16T11:54:34.225Z,21.67
2019-05-16T11:57:01.433Z,21.51
2019-05-16T12:02:04.370Z,21.54
2019-05-16T12:04:34.360Z,21.31
2019-05-16T12:07:01.157Z,21.12
2019-05-16T12:12:21.894Z,21.00
2019-05-16T12:14:51.024Z,20.75
2019-05-16T12:17:18.196Z,20.43
2019-05-16T12:19:48.259Z,20.16
2019-05-16T12:22:18.295Z,19.98
2019-05-16T12:24:44.409Z,19.73
2019-05-16T12:27:11.305Z,19.46
2019-05-16T12:29:40.107Z,19.39
2019-05-16T12:32:07.855Z,19.37
2019-05-16T12:34:36.873Z,19.22
2019-05-16T12:37:08.270Z,19.13
2019-05-16T12:39:37.770Z,19.23
2019-05-16T12:42:03.511Z,19.34
2019-05-16T12:44:32.333Z,19.35
2019-05-16T12:46:59.097Z,19.21
2019-05-16T12:49:25.715Z,19.22
2019-05-16T12:51:57.034Z,19.06
2019-05-16T12:54:23.967Z,19.03
2019-05-16T12:56:52.731Z,18.96
2019-05-16T12:59:21.856Z,18.90
2019-05-16T13:01:48.549Z,18.82
2019-05-16T13:04:18.897Z,18.75
2019-05-16T13:06:47.110Z,18.83
2019-05-16T13:09:13.781Z,18.89
2019-05-16T13:11:40.724Z,18.90
2019-05-16T13:14:11.301Z,18.92
2019-05-16T13:16:37.744Z,18.92
2019-05-16T13:19:06.843Z,18.77
2019-05-16T13:29:11.070Z,18.68
2019-05-16T13:31:37.963Z,18.66
2019-05-16T13:34:07.435Z,18.78
2019-05-16T13:36:34.291Z,18.81
2019-05-16T13:39:02.573Z,18.91
2019-05-16T13:41:34.357Z,18.89
2019-05-16T13:44:13.912Z,19.12
2019-05-16T13:46:28.582Z,19.20
2019-05-16T13:48:57.268Z,19.22
2019-05-16T13:51:24.118Z,19.22
2019-05-16T13:53:50.736Z,19.09
2019-05-16T13:56:20.235Z,18.84
2019-05-16T13:58:47.158Z,18.53
2019-05-16T14:01:13.909Z,18.61
2019-05-16T14:03:43.190Z,18.70
2019-05-16T14:06:09.904Z,18.87
2019-05-16T14:08:39.496Z,18.92
2019-05-16T14:11:10.988Z,18.88
2019-05-16T14:13:37.847Z,19.02
2019-05-16T14:16:07.101Z,18.59
2019-05-16T14:18:38.039Z,18.40
2019-05-16T14:21:06.885Z,18.33
2019-05-16T14:23:33.580Z,18.15
2019-05-16T14:28:37.184Z,17.82
2019-05-16T14:31:07.221Z,17.87
2019-05-16T14:33:36.710Z,18.12
2019-05-16T14:36:07.489Z,18.19
2019-05-16T14:38:37.735Z,18.36
2019-05-16T14:41:04.639Z,18.50
2019-05-16T14:43:36.934Z,18.65
2019-05-16T14:46:07.044Z,18.31
2019-05-16T14:48:32.455Z,18.30
2019-05-16T14:51:02.528Z,18.23
2019-05-16T14:53:32.328Z,18.21
2019-05-16T14:56:02.532Z,18.19
2019-05-16T14:58:57.839Z,18.04
2019-05-16T15:01:31.627Z,17.92
2019-05-16T15:04:02.704Z,17.85
2019-05-16T15:06:29.766Z,17.64
2019-05-16T15:08:58.205Z,17.68
2019-05-16T15:11:28.486Z,17.58
2019-05-16T15:13:58.209Z,17.54
2019-05-16T15:16:27.296Z,17.48
2019-05-16T15:18:59.748Z,17.61
2019-05-16T15:21:28.355Z,17.77
2019-05-16T15:24:00.944Z,17.61
2019-05-16T15:26:31.379Z,17.76
2019-05-16T15:28:59.201Z,17.92
2019-05-16T15:31:36.295Z,17.64
2019-05-16T15:36:37.504Z,18.00
2019-05-16T15:39:07.839Z,17.86
2019-05-16T15:41:39.657Z,17.74
2019-05-16T15:49:19.561Z,18.09
2019-05-16T15:51:47.301Z,18.04
2019-05-16T15:54:20.390Z,17.97
2019-05-16T15:56:50.377Z,17.83
2019-05-16T15:59:18.128Z,17.62
2019-05-16T16:01:47.427Z,17.79
2019-05-16T16:04:18.367Z,17.98
2019-05-16T16:06:49.090Z,18.24
2019-05-16T16:09:17.458Z,18.45
2019-05-16T16:11:48.675Z,18.07
2019-05-16T16:14:17.174Z,18.03
2019-05-16T16:16:46.345Z,18.22
2019-05-16T16:19:17.453Z,18.12
2019-05-16T16:21:47.326Z,17.86
2019-05-16T16:24:18.908Z,17.94
2019-05-16T16:34:28.542Z,17.56
2019-05-16T16:36:56.933Z,17.73
2019-05-16T16:39:31.076Z,17.95
2019-05-16T16:42:01.516Z,18.15
2019-05-16T16:44:37.485Z,18.06
2019-05-16T16:47:06.711Z,18.17
2019-05-16T16:54:44.607Z,17.69
2019-05-16T16:57:11.724Z,17.82
2019-05-16T16:59:38.833Z,17.98
2019-05-16T17:02:10.520Z,18.14
2019-05-16T17:04:38.706Z,18.26
2019-05-16T17:07:07.173Z,18.42
2019-05-16T17:12:10.640Z,18.10
2019-05-16T17:14:39.983Z,18.10
2019-05-16T17:17:07.126Z,17.99
2019-05-16T17:22:17.001Z,17.92
2019-05-16T17:24:40.548Z,18.08
2019-05-16T17:27:09.793Z,18.03
2019-05-16T17:29:38.809Z,18.19
2019-05-16T17:32:09.919Z,18.27
2019-05-16T17:34:34.667Z,18.39
2019-05-16T17:37:08.990Z,18.41
2019-05-16T17:39:34.208Z,18.31
2019-05-16T17:42:03.712Z,18.25
2019-05-16T17:44:32.323Z,18.05
2019-05-16T17:46:59.266Z,18.14
2019-05-16T17:49:29.866Z,18.31
2019-05-16T17:51:59.147Z,18.23
2019-05-16T17:54:26.757Z,17.99
2019-05-16T17:56:53.932Z,17.86
2019-05-16T18:01:57.528Z,17.72
2019-05-16T18:04:26.538Z,17.66
2019-05-16T18:06:52.654Z,17.51
2019-05-16T18:09:21.303Z,17.48
2019-05-16T18:11:47.972Z,17.56
2019-05-16T18:14:16.955Z,17.57
2019-05-16T18:16:53.727Z,17.51
2019-05-16T18:19:19.689Z,17.71
2019-05-16T18:21:46.462Z,17.76
2019-05-16T18:24:16.711Z,17.76
2019-05-16T18:26:43.716Z,17.87
2019-05-16T18:29:10.318Z,17.84
2019-05-16T18:31:38.983Z,17.77
2019-05-16T18:34:07.354Z,17.88
2019-05-16T18:36:34.199Z,17.88
2019-05-16T18:39:03.822Z,17.95
2019-05-16T18:41:30.511Z,18.07
2019-05-16T18:43:57.140Z,18.17
2019-05-16T18:46:26.906Z,18.18
2019-05-16T18:51:29.274Z,18.17
2019-05-16T18:54:00.658Z,18.29
2019-05-16T18:56:27.352Z,18.21
2019-05-16T18:58:53.959Z,18.15
2019-05-16T19:01:23.671Z,18.02
2019-05-16T19:03:50.276Z,18.03
2019-05-16T19:06:17.088Z,18.07
2019-05-16T19:08:45.945Z,18.07
2019-05-16T19:11:12.535Z,18.08
2019-05-16T19:13:39.227Z,18.06
2019-05-16T19:16:08.196Z,18.18
2019-05-16T19:18:36.789Z,18.18
2019-05-16T19:21:03.135Z,18.09
2019-05-16T19:23:33.836Z,18.09
2019-05-16T19:26:00.678Z,18.12
2019-05-16T19:28:28.696Z,18.08
2019-05-16T19:30:57.484Z,18.00
2019-05-16T19:33:24.386Z,17.90
2019-05-16T19:35:51.059Z,17.76
2019-05-16T19:38:20.677Z,17.78
2019-05-16T19:40:47.314Z,17.84
2019-05-16T19:43:13.923Z,17.77
2019-05-16T19:45:43.277Z,17.73
2019-05-16T19:48:10.121Z,17.67
2019-05-16T19:50:37.393Z,17.60
2019-05-16T19:53:07.722Z,17.49
2019-05-16T19:55:36.595Z,17.38
2019-05-16T19:58:03.135Z,17.44
2019-05-16T20:00:31.556Z,17.51
2019-05-16T20:02:58.188Z,17.56
2019-05-16T20:05:26.691Z,17.56
2019-05-16T20:07:58.361Z,17.55
2019-05-16T20:10:26.975Z,17.60
2019-05-16T20:12:53.285Z,17.63
2019-05-16T20:15:22.600Z,17.61
2019-05-16T20:17:56.112Z,17.57
2019-05-16T20:20:18.651Z,17.61
2019-05-16T20:22:47.277Z,17.63
2019-05-16T20:25:16.365Z,17.65
2019-05-16T20:27:43.298Z,17.67
2019-05-16T20:30:13.154Z,17.56
2019-05-16T20:32:39.764Z,17.61
2019-05-16T20:35:08.785Z,17.69
2019-05-16T20:37:36.872Z,17.69
2019-05-16T20:40:03.512Z,17.75
2019-05-16T20:42:30.397Z,17.80
2019-05-16T20:44:59.722Z,17.83
2019-05-16T20:47:27.189Z,17.84
2019-05-16T20:49:53.970Z,17.79
2019-05-16T20:52:26.753Z,17.70
2019-05-16T20:54:52.980Z,17.47
2019-05-16T20:57:19.619Z,17.43
2019-05-16T20:59:49.191Z,17.48
2019-05-16T21:02:16.414Z,17.59
2019-05-16T21:04:43.213Z,17.64
2019-05-16T21:07:12.203Z,17.77
2019-05-16T21:09:38.841Z,17.79
2019-05-16T21:12:08.044Z,17.81
2019-05-16T21:14:35.926Z,17.76
2019-05-16T21:17:02.507Z,17.73
2019-05-16T21:19:29.116Z,17.67
2019-05-16T21:24:31.046Z,17.36
2019-05-16T21:26:57.912Z,17.21
2019-05-16T21:29:27.513Z,17.09
2019-05-16T21:31:56.605Z,17.01
2019-05-16T21:34:23.234Z,17.02
2019-05-16T21:36:50.123Z,17.13
2019-05-16T21:39:20.698Z,17.21
2019-05-16T21:41:47.578Z,17.20
2019-05-16T21:44:14.178Z,17.24
2019-05-16T21:46:46.902Z,17.33
2019-05-16T21:49:13.718Z,17.40
2019-05-16T21:51:40.328Z,17.24
2019-05-16T21:54:09.368Z,17.26
2019-05-16T21:56:37.265Z,17.18
2019-05-16T21:59:04.231Z,17.10
2019-05-16T22:01:37.330Z,17.14
2019-05-16T22:04:04.271Z,17.28
2019-05-16T22:06:31.100Z,17.24
2019-05-16T22:08:59.612Z,17.35
2019-05-16T22:11:26.434Z,17.35
2019-05-16T22:13:53.035Z,17.34
2019-05-16T22:16:22.632Z,17.26
2019-05-16T22:18:49.235Z,17.26
2019-05-16T22:21:16.698Z,17.18
2019-05-16T22:23:46.470Z,17.30
2019-05-16T22:26:13.254Z,17.36
2019-05-16T22:28:39.861Z,17.34
2019-05-16T22:31:08.695Z,17.35
2019-05-16T22:33:37.281Z,17.27
2019-05-16T22:36:03.612Z,17.29
2019-05-16T22:38:31.969Z,17.30
2019-05-16T22:40:58.576Z,17.28
2019-05-16T22:43:26.615Z,17.39
2019-05-16T22:45:57.408Z,17.32
2019-05-16T22:48:26.669Z,17.35
2019-05-16T22:50:53.554Z,17.40
2019-05-16T22:55:56.550Z,17.16
2019-05-16T22:58:22.723Z,17.18
2019-05-16T23:00:49.599Z,17.16
2019-05-16T23:03:18.400Z,17.17
2019-05-16T23:05:47.236Z,17.21
2019-05-16T23:08:13.334Z,17.24
2019-05-16T23:13:17.006Z,17.41
2019-05-16T23:15:43.751Z,17.42
2019-05-16T23:18:10.360Z,17.39
2019-05-16T23:20:38.938Z,17.31
2019-05-16T23:23:07.135Z,17.34
2019-05-16T23:25:34.333Z,17.27
2019-05-16T23:28:02.973Z,17.29
2019-05-16T23:30:29.591Z,17.23
2019-05-16T23:32:56.385Z,17.06
2019-05-16T23:35:26.904Z,16.92
2019-05-16T23:37:53.547Z,16.96
2019-05-16T23:40:20.181Z,16.99
2019-05-16T23:42:48.642Z,17.03
2019-05-16T23:45:17.106Z,17.11
2019-05-16T23:47:43.610Z,17.09
2019-05-16T23:50:12.553Z,17.16
2019-05-16T23:52:39.159Z,17.19
2019-05-16T23:55:08.176Z,17.22
2019-05-16T23:57:37.760Z,17.27
